sensor_id;sensor_type;location;lat;lon;timestamp;P1;durP1;ratioP1;P2;durP2;ratioP2
577;SDS011;275;48.492;9.214;2023-05-07T00:00:40;8.07;;;7.17;;
577;SDS011;275;48.492;9.214;2023-05-07T00:03:09;8.10;;;7.30;;
577;SDS011;275;48.492;9.214;2023-05-07T00:05:36;9.37;;;7.43;;
577;SDS011;275;48.492;9.214;2023-05-07T00:08:04;8.43;;;7.63;;
577;SDS011;275;48.492;9.214;2023-05-07T00:10:31;9.87;;;7.83;;
577;SDS011;275;48.492;9.214;2023-05-07T00:12:57;11.60;;;9.60;;
577;SDS011;275;48.492;9.214;2023-05-07T00:15:24;11.47;;;10.40;;
577;SDS011;275;48.492;9.214;2023-05-07T00:17:51;12.87;;;11.53;;
577;SDS011;275;48.492;9.214;2023-05-07T00:20:19;11.00;;;9.90;;
577;SDS011;275;48.492;9.214;2023-05-07T00:22:46;13.30;;;12.03;;
577;SDS011;275;48.492;9.214;2023-05-07T00:25:13;14.57;;;13.27;;
577;SDS011;275;48.492;9.214;2023-05-07T00:27:40;14.63;;;13.40;;
577;SDS011;275;48.492;9.214;2023-05-07T00:30:07;13.73;;;12.50;;
577;SDS011;275;48.492;9.214;2023-05-07T00:32:34;16.57;;;15.23;;
577;SDS011;275;48.492;9.214;2023-05-07T00:35:01;12.67;;;11.20;;
577;SDS011;275;48.492;9.214;2023-05-07T00:37:29;9.93;;;7.90;;
577;SDS011;275;48.492;9.214;2023-05-07T00:39:56;8.97;;;8.07;;
577;SDS011;275;48.492;9.214;2023-05-07T00:42:23;10.83;;;7.50;;
577;SDS011;275;48.492;9.214;2023-05-07T00:44:50;8.87;;;7.97;;
577;SDS011;275;48.492;9.214;2023-05-07T00:47:17;8.80;;;8.00;;
577;SDS011;275;48.492;9.214;2023-05-07T00:49:44;7.53;;;6.90;;
577;SDS011;275;48.492;9.214;2023-05-07T00:52:13;7.27;;;6.57;;
577;SDS011;275;48.492;9.214;2023-05-07T00:54:43;6.63;;;5.93;;
577;SDS011;275;48.492;9.214;2023-05-07T00:57:10;7.53;;;6.40;;
577;SDS011;275;48.492;9.214;2023-05-07T00:59:37;9.83;;;6.13;;
577;SDS011;275;48.492;9.214;2023-05-07T01:02:05;7.33;;;6.63;;
577;SDS011;275;48.492;9.214;2023-05-07T01:04:32;7.07;;;6.00;;
577;SDS011;275;48.492;9.214;2023-05-07T01:07:00;6.60;;;5.87;;
577;SDS011;275;48.492;9.214;2023-05-07T01:09:27;6.10;;;5.50;;
577;SDS011;275;48.492;9.214;2023-05-07T01:11:56;8.00;;;5.73;;
577;SDS011;275;48.492;9.214;2023-05-07T01:14:24;9.87;;;5.70;;
577;SDS011;275;48.492;9.214;2023-05-07T01:16:51;7.57;;;5.50;;
577;SDS011;275;48.492;9.214;2023-05-07T01:19:18;6.50;;;5.80;;
577;SDS011;275;48.492;9.214;2023-05-07T01:21:46;7.50;;;6.80;;
577;SDS011;275;48.492;9.214;2023-05-07T01:24:16;6.90;;;5.50;;
577;SDS011;275;48.492;9.214;2023-05-07T01:26:44;6.20;;;5.53;;
577;SDS011;275;48.492;9.214;2023-05-07T01:29:11;7.00;;;5.60;;
577;SDS011;275;48.492;9.214;2023-05-07T01:31:37;7.13;;;6.20;;
577;SDS011;275;48.492;9.214;2023-05-07T01:34:06;7.60;;;6.90;;
577;SDS011;275;48.492;9.214;2023-05-07T01:36:35;8.50;;;7.70;;
577;SDS011;275;48.492;9.214;2023-05-07T01:39:05;8.47;;;7.43;;
577;SDS011;275;48.492;9.214;2023-05-07T01:41:34;10.20;;;9.20;;
577;SDS011;275;48.492;9.214;2023-05-07T01:44:01;8.10;;;7.40;;
577;SDS011;275;48.492;9.214;2023-05-07T01:46:29;9.50;;;8.03;;
577;SDS011;275;48.492;9.214;2023-05-07T01:48:57;11.37;;;8.80;;
577;SDS011;275;48.492;9.214;2023-05-07T01:51:24;9.53;;;8.37;;
577;SDS011;275;48.492;9.214;2023-05-07T01:53:52;9.90;;;9.00;;
577;SDS011;275;48.492;9.214;2023-05-07T01:56:19;10.20;;;8.63;;
577;SDS011;275;48.492;9.214;2023-05-07T01:58:47;8.97;;;8.07;;
577;SDS011;275;48.492;9.214;2023-05-07T02:01:16;8.20;;;7.50;;
577;SDS011;275;48.492;9.214;2023-05-07T02:03:43;8.10;;;7.40;;
577;SDS011;275;48.492;9.214;2023-05-07T02:06:10;8.00;;;7.20;;
577;SDS011;275;48.492;9.214;2023-05-07T02:08:36;8.20;;;7.40;;
577;SDS011;275;48.492;9.214;2023-05-07T02:11:04;7.83;;;7.03;;
577;SDS011;275;48.492;9.214;2023-05-07T02:13:32;9.13;;;7.17;;
577;SDS011;275;48.492;9.214;2023-05-07T02:16:02;7.40;;;6.60;;
577;SDS011;275;48.492;9.214;2023-05-07T02:18:29;7.77;;;7.00;;
577;SDS011;275;48.492;9.214;2023-05-07T02:20:56;7.40;;;6.40;;
577;SDS011;275;48.492;9.214;2023-05-07T02:23:23;8.00;;;7.20;;
577;SDS011;275;48.492;9.214;2023-05-07T02:25:50;6.87;;;6.07;;
577;SDS011;275;48.492;9.214;2023-05-07T02:28:17;7.50;;;6.23;;
577;SDS011;275;48.492;9.214;2023-05-07T02:30:44;6.40;;;5.80;;
577;SDS011;275;48.492;9.214;2023-05-07T02:33:12;8.40;;;6.27;;
577;SDS011;275;48.492;9.214;2023-05-07T02:35:39;7.10;;;6.40;;
577;SDS011;275;48.492;9.214;2023-05-07T02:38:06;7.00;;;6.30;;
577;SDS011;275;48.492;9.214;2023-05-07T02:40:35;7.03;;;6.33;;
577;SDS011;275;48.492;9.214;2023-05-07T02:43:03;6.13;;;5.53;;
577;SDS011;275;48.492;9.214;2023-05-07T02:45:31;8.10;;;7.30;;
577;SDS011;275;48.492;9.214;2023-05-07T02:47:58;7.93;;;7.13;;
577;SDS011;275;48.492;9.214;2023-05-07T02:50:26;8.20;;;7.27;;
577;SDS011;275;48.492;9.214;2023-05-07T02:52:53;8.90;;;8.10;;
577;SDS011;275;48.492;9.214;2023-05-07T02:55:20;8.67;;;7.80;;
577;SDS011;275;48.492;9.214;2023-05-07T02:57:47;9.90;;;8.90;;
577;SDS011;275;48.492;9.214;2023-05-07T03:00:15;9.17;;;8.47;;
577;SDS011;275;48.492;9.214;2023-05-07T03:02:43;9.07;;;8.17;;
577;SDS011;275;48.492;9.214;2023-05-07T03:05:10;10.50;;;9.50;;
577;SDS011;275;48.492;9.214;2023-05-07T03:07:39;10.33;;;8.57;;
577;SDS011;275;48.492;9.214;2023-05-07T03:10:06;8.97;;;8.17;;
577;SDS011;275;48.492;9.214;2023-05-07T03:12:33;8.33;;;7.53;;
577;SDS011;275;48.492;9.214;2023-05-07T03:15:00;8.90;;;7.80;;
577;SDS011;275;48.492;9.214;2023-05-07T03:17:27;8.60;;;7.90;;
577;SDS011;275;48.492;9.214;2023-05-07T03:19:54;8.23;;;7.60;;
577;SDS011;275;48.492;9.214;2023-05-07T03:22:21;7.43;;;6.67;;
577;SDS011;275;48.492;9.214;2023-05-07T03:24:49;5.97;;;5.37;;
577;SDS011;275;48.492;9.214;2023-05-07T03:27:16;8.63;;;7.20;;
577;SDS011;275;48.492;9.214;2023-05-07T03:29:42;8.40;;;7.60;;
577;SDS011;275;48.492;9.214;2023-05-07T03:32:09;8.63;;;7.80;;
577;SDS011;275;48.492;9.214;2023-05-07T03:34:36;6.83;;;6.23;;
577;SDS011;275;48.492;9.214;2023-05-07T03:37:03;9.03;;;7.63;;
577;SDS011;275;48.492;9.214;2023-05-07T03:39:30;7.73;;;7.00;;
577;SDS011;275;48.492;9.214;2023-05-07T03:41:58;7.33;;;6.63;;
577;SDS011;275;48.492;9.214;2023-05-07T03:44:25;7.37;;;6.67;;
577;SDS011;275;48.492;9.214;2023-05-07T03:46:52;9.17;;;6.50;;
577;SDS011;275;48.492;9.214;2023-05-07T03:49:19;7.30;;;6.70;;
577;SDS011;275;48.492;9.214;2023-05-07T03:51:46;7.80;;;7.10;;
577;SDS011;275;48.492;9.214;2023-05-07T03:54:12;8.63;;;7.90;;
577;SDS011;275;48.492;9.214;2023-05-07T03:56:39;8.93;;;7.27;;
577;SDS011;275;48.492;9.214;2023-05-07T03:59:08;8.50;;;7.83;;
577;SDS011;275;48.492;9.214;2023-05-07T04:01:34;7.30;;;6.70;;
577;SDS011;275;48.492;9.214;2023-05-07T04:04:01;7.37;;;6.67;;
577;SDS011;275;48.492;9.214;2023-05-07T04:06:29;8.20;;;7.40;;
577;SDS011;275;48.492;9.214;2023-05-07T04:08:56;7.90;;;7.17;;
577;SDS011;275;48.492;9.214;2023-05-07T04:11:23;8.50;;;7.60;;
577;SDS011;275;48.492;9.214;2023-05-07T04:13:50;7.73;;;7.03;;
577;SDS011;275;48.492;9.214;2023-05-07T04:16:18;6.40;;;5.80;;
577;SDS011;275;48.492;9.214;2023-05-07T04:18:45;7.27;;;6.67;;
577;SDS011;275;48.492;9.214;2023-05-07T04:21:15;7.87;;;7.10;;
577;SDS011;275;48.492;9.214;2023-05-07T04:23:42;7.00;;;6.30;;
577;SDS011;275;48.492;9.214;2023-05-07T04:26:09;9.77;;;7.87;;
577;SDS011;275;48.492;9.214;2023-05-07T04:28:36;8.20;;;7.40;;
577;SDS011;275;48.492;9.214;2023-05-07T04:31:03;7.80;;;7.10;;
577;SDS011;275;48.492;9.214;2023-05-07T04:33:31;8.93;;;8.13;;
577;SDS011;275;48.492;9.214;2023-05-07T04:35:58;8.23;;;7.30;;
577;SDS011;275;48.492;9.214;2023-05-07T04:38:29;8.43;;;7.63;;
577;SDS011;275;48.492;9.214;2023-05-07T04:40:56;7.50;;;6.90;;
577;SDS011;275;48.492;9.214;2023-05-07T04:43:23;7.83;;;7.00;;
577;SDS011;275;48.492;9.214;2023-05-07T04:45:50;7.20;;;6.50;;
577;SDS011;275;48.492;9.214;2023-05-07T04:48:17;7.43;;;5.77;;
577;SDS011;275;48.492;9.214;2023-05-07T04:50:48;6.13;;;5.50;;
577;SDS011;275;48.492;9.214;2023-05-07T04:53:15;6.10;;;5.50;;
577;SDS011;275;48.492;9.214;2023-05-07T04:55:42;6.13;;;5.53;;
577;SDS011;275;48.492;9.214;2023-05-07T04:58:09;6.47;;;5.33;;
577;SDS011;275;48.492;9.214;2023-05-07T05:00:37;6.57;;;5.90;;
577;SDS011;275;48.492;9.214;2023-05-07T05:03:04;5.90;;;5.20;;
577;SDS011;275;48.492;9.214;2023-05-07T05:05:32;7.47;;;6.10;;
577;SDS011;275;48.492;9.214;2023-05-07T05:08:00;6.90;;;6.20;;
577;SDS011;275;48.492;9.214;2023-05-07T05:10:27;7.43;;;5.90;;
577;SDS011;275;48.492;9.214;2023-05-07T05:12:54;9.43;;;6.20;;
577;SDS011;275;48.492;9.214;2023-05-07T05:15:21;8.13;;;6.60;;
577;SDS011;275;48.492;9.214;2023-05-07T05:17:48;7.10;;;6.40;;
577;SDS011;275;48.492;9.214;2023-05-07T05:20:14;8.33;;;5.73;;
577;SDS011;275;48.492;9.214;2023-05-07T05:22:41;7.50;;;6.37;;
577;SDS011;275;48.492;9.214;2023-05-07T05:25:10;6.57;;;5.97;;
577;SDS011;275;48.492;9.214;2023-05-07T05:27:36;7.30;;;5.43;;
577;SDS011;275;48.492;9.214;2023-05-07T05:30:04;7.70;;;6.90;;
577;SDS011;275;48.492;9.214;2023-05-07T05:32:31;6.40;;;5.80;;
577;SDS011;275;48.492;9.214;2023-05-07T05:34:58;6.83;;;4.53;;
577;SDS011;275;48.492;9.214;2023-05-07T05:37:25;8.13;;;5.30;;
577;SDS011;275;48.492;9.214;2023-05-07T05:39:52;5.70;;;5.07;;
577;SDS011;275;48.492;9.214;2023-05-07T05:42:21;5.97;;;5.37;;
577;SDS011;275;48.492;9.214;2023-05-07T05:44:47;5.80;;;4.73;;
577;SDS011;275;48.492;9.214;2023-05-07T05:47:14;6.57;;;4.53;;
577;SDS011;275;48.492;9.214;2023-05-07T05:49:41;6.13;;;4.87;;
577;SDS011;275;48.492;9.214;2023-05-07T05:52:08;5.50;;;4.93;;
577;SDS011;275;48.492;9.214;2023-05-07T05:54:35;6.77;;;5.10;;
577;SDS011;275;48.492;9.214;2023-05-07T05:57:02;5.50;;;5.00;;
577;SDS011;275;48.492;9.214;2023-05-07T05:59:32;6.03;;;5.53;;
577;SDS011;275;48.492;9.214;2023-05-07T06:01:59;7.10;;;6.23;;
577;SDS011;275;48.492;9.214;2023-05-07T06:04:26;10.23;;;6.40;;
577;SDS011;275;48.492;9.214;2023-05-07T06:06:52;6.70;;;6.00;;
577;SDS011;275;48.492;9.214;2023-05-07T06:09:19;6.70;;;6.03;;
577;SDS011;275;48.492;9.214;2023-05-07T06:11:46;7.33;;;6.27;;
577;SDS011;275;48.492;9.214;2023-05-07T06:14:13;9.27;;;6.30;;
577;SDS011;275;48.492;9.214;2023-05-07T06:16:41;6.83;;;6.23;;
577;SDS011;275;48.492;9.214;2023-05-07T06:19:08;7.43;;;6.73;;
577;SDS011;275;48.492;9.214;2023-05-07T06:21:35;7.20;;;6.30;;
577;SDS011;275;48.492;9.214;2023-05-07T06:24:01;7.50;;;6.80;;
577;SDS011;275;48.492;9.214;2023-05-07T06:26:28;7.33;;;5.90;;
577;SDS011;275;48.492;9.214;2023-05-07T06:28:55;6.80;;;6.30;;
577;SDS011;275;48.492;9.214;2023-05-07T06:31:22;6.93;;;6.23;;
577;SDS011;275;48.492;9.214;2023-05-07T06:33:50;8.30;;;6.83;;
577;SDS011;275;48.492;9.214;2023-05-07T06:36:17;6.80;;;6.07;;
577;SDS011;275;48.492;9.214;2023-05-07T06:38:43;6.47;;;5.87;;
577;SDS011;275;48.492;9.214;2023-05-07T06:41:10;6.40;;;5.50;;
577;SDS011;275;48.492;9.214;2023-05-07T06:43:37;9.20;;;8.27;;
577;SDS011;275;48.492;9.214;2023-05-07T06:46:04;9.13;;;7.87;;
577;SDS011;275;48.492;9.214;2023-05-07T06:48:31;8.50;;;7.80;;
577;SDS011;275;48.492;9.214;2023-05-07T06:50:59;9.83;;;9.00;;
577;SDS011;275;48.492;9.214;2023-05-07T06:53:27;7.90;;;7.20;;
577;SDS011;275;48.492;9.214;2023-05-07T06:55:55;13.13;;;12.10;;
577;SDS011;275;48.492;9.214;2023-05-07T06:58:22;12.20;;;9.40;;
577;SDS011;275;48.492;9.214;2023-05-07T07:00:49;11.40;;;9.20;;
577;SDS011;275;48.492;9.214;2023-05-07T07:03:15;7.40;;;6.70;;
577;SDS011;275;48.492;9.214;2023-05-07T07:05:42;7.73;;;6.60;;
577;SDS011;275;48.492;9.214;2023-05-07T07:08:11;8.73;;;6.97;;
577;SDS011;275;48.492;9.214;2023-05-07T07:10:37;6.97;;;6.30;;
577;SDS011;275;48.492;9.214;2023-05-07T07:13:04;5.90;;;5.30;;
577;SDS011;275;48.492;9.214;2023-05-07T07:15:31;7.10;;;5.83;;
577;SDS011;275;48.492;9.214;2023-05-07T07:17:58;6.87;;;6.03;;
577;SDS011;275;48.492;9.214;2023-05-07T07:20:25;9.00;;;6.10;;
577;SDS011;275;48.492;9.214;2023-05-07T07:22:51;7.77;;;5.90;;
577;SDS011;275;48.492;9.214;2023-05-07T07:25:20;6.80;;;5.57;;
577;SDS011;275;48.492;9.214;2023-05-07T07:27:46;6.37;;;5.50;;
577;SDS011;275;48.492;9.214;2023-05-07T07:30:13;6.23;;;5.33;;
577;SDS011;275;48.492;9.214;2023-05-07T07:32:40;5.43;;;4.93;;
577;SDS011;275;48.492;9.214;2023-05-07T07:35:08;6.50;;;5.87;;
577;SDS011;275;48.492;9.214;2023-05-07T07:37:35;10.00;;;6.60;;
577;SDS011;275;48.492;9.214;2023-05-07T07:40:02;6.57;;;5.10;;
577;SDS011;275;48.492;9.214;2023-05-07T07:42:30;5.40;;;4.33;;
577;SDS011;275;48.492;9.214;2023-05-07T07:44:57;5.50;;;4.47;;
577;SDS011;275;48.492;9.214;2023-05-07T07:47:24;6.27;;;4.90;;
577;SDS011;275;48.492;9.214;2023-05-07T07:49:51;5.57;;;4.30;;
577;SDS011;275;48.492;9.214;2023-05-07T07:52:18;4.70;;;4.07;;
577;SDS011;275;48.492;9.214;2023-05-07T07:54:45;5.00;;;4.50;;
577;SDS011;275;48.492;9.214;2023-05-07T07:57:11;6.23;;;4.37;;
577;SDS011;275;48.492;9.214;2023-05-07T07:59:39;5.50;;;4.87;;
577;SDS011;275;48.492;9.214;2023-05-07T08:02:08;5.43;;;4.93;;
577;SDS011;275;48.492;9.214;2023-05-07T08:04:35;6.03;;;4.67;;
577;SDS011;275;48.492;9.214;2023-05-07T08:07:02;6.30;;;4.50;;
577;SDS011;275;48.492;9.214;2023-05-07T08:09:29;5.57;;;4.43;;
577;SDS011;275;48.492;9.214;2023-05-07T08:11:56;5.37;;;4.20;;
577;SDS011;275;48.492;9.214;2023-05-07T08:14:23;7.00;;;4.80;;
577;SDS011;275;48.492;9.214;2023-05-07T08:16:51;4.40;;;4.00;;
577;SDS011;275;48.492;9.214;2023-05-07T08:19:18;5.83;;;4.83;;
577;SDS011;275;48.492;9.214;2023-05-07T08:21:47;6.03;;;4.90;;
577;SDS011;275;48.492;9.214;2023-05-07T08:24:17;6.50;;;4.70;;
577;SDS011;275;48.492;9.214;2023-05-07T08:26:44;5.60;;;5.07;;
577;SDS011;275;48.492;9.214;2023-05-07T08:29:11;6.10;;;4.80;;
577;SDS011;275;48.492;9.214;2023-05-07T08:31:38;5.20;;;4.63;;
577;SDS011;275;48.492;9.214;2023-05-07T08:34:06;5.53;;;4.90;;
577;SDS011;275;48.492;9.214;2023-05-07T08:36:33;5.80;;;4.83;;
577;SDS011;275;48.492;9.214;2023-05-07T08:38:59;6.87;;;5.10;;
577;SDS011;275;48.492;9.214;2023-05-07T08:41:27;5.17;;;4.30;;
577;SDS011;275;48.492;9.214;2023-05-07T08:43:54;4.73;;;3.47;;
577;SDS011;275;48.492;9.214;2023-05-07T08:46:25;5.77;;;4.67;;
577;SDS011;275;48.492;9.214;2023-05-07T08:48:56;5.00;;;4.50;;
577;SDS011;275;48.492;9.214;2023-05-07T08:51:24;5.13;;;4.63;;
577;SDS011;275;48.492;9.214;2023-05-07T08:53:52;5.57;;;4.17;;
577;SDS011;275;48.492;9.214;2023-05-07T08:56:19;6.23;;;4.70;;
577;SDS011;275;48.492;9.214;2023-05-07T08:58:46;5.20;;;4.63;;
577;SDS011;275;48.492;9.214;2023-05-07T09:01:13;5.33;;;4.50;;
577;SDS011;275;48.492;9.214;2023-05-07T09:03:42;4.60;;;3.90;;
577;SDS011;275;48.492;9.214;2023-05-07T09:06:11;6.23;;;4.60;;
577;SDS011;275;48.492;9.214;2023-05-07T09:08:40;4.50;;;3.80;;
577;SDS011;275;48.492;9.214;2023-05-07T09:11:06;5.90;;;3.83;;
577;SDS011;275;48.492;9.214;2023-05-07T09:13:34;4.80;;;3.20;;
577;SDS011;275;48.492;9.214;2023-05-07T09:16:09;5.60;;;3.60;;
577;SDS011;275;48.492;9.214;2023-05-07T09:18:40;7.70;;;3.93;;
577;SDS011;275;48.492;9.214;2023-05-07T09:21:09;4.70;;;3.80;;
577;SDS011;275;48.492;9.214;2023-05-07T09:23:36;6.40;;;3.77;;
577;SDS011;275;48.492;9.214;2023-05-07T09:26:05;5.93;;;3.60;;
577;SDS011;275;48.492;9.214;2023-05-07T09:28:37;5.03;;;3.37;;
577;SDS011;275;48.492;9.214;2023-05-07T09:31:05;6.03;;;3.87;;
577;SDS011;275;48.492;9.214;2023-05-07T09:33:32;4.73;;;3.63;;
577;SDS011;275;48.492;9.214;2023-05-07T09:36:01;6.03;;;3.60;;
577;SDS011;275;48.492;9.214;2023-05-07T09:38:29;4.17;;;3.00;;
577;SDS011;275;48.492;9.214;2023-05-07T09:41:03;6.23;;;3.50;;
577;SDS011;275;48.492;9.214;2023-05-07T09:43:33;4.43;;;2.90;;
577;SDS011;275;48.492;9.214;2023-05-07T09:46:06;5.10;;;3.07;;
577;SDS011;275;48.492;9.214;2023-05-07T09:48:37;3.80;;;2.50;;
577;SDS011;275;48.492;9.214;2023-05-07T09:51:06;6.63;;;3.40;;
577;SDS011;275;48.492;9.214;2023-05-07T09:53:41;4.23;;;2.30;;
577;SDS011;275;48.492;9.214;2023-05-07T09:56:12;4.00;;;2.60;;
577;SDS011;275;48.492;9.214;2023-05-07T09:58:40;3.97;;;2.60;;
577;SDS011;275;48.492;9.214;2023-05-07T10:01:08;4.47;;;2.10;;
577;SDS011;275;48.492;9.214;2023-05-07T10:03:37;6.43;;;2.80;;
577;SDS011;275;48.492;9.214;2023-05-07T10:06:08;4.50;;;2.17;;
577;SDS011;275;48.492;9.214;2023-05-07T10:08:35;3.53;;;2.40;;
577;SDS011;275;48.492;9.214;2023-05-07T10:11:03;3.70;;;2.40;;
577;SDS011;275;48.492;9.214;2023-05-07T10:13:31;3.80;;;2.27;;
577;SDS011;275;48.492;9.214;2023-05-07T10:15:59;3.43;;;2.20;;
577;SDS011;275;48.492;9.214;2023-05-07T10:18:27;4.30;;;2.13;;
577;SDS011;275;48.492;9.214;2023-05-07T10:20:58;3.73;;;2.20;;
577;SDS011;275;48.492;9.214;2023-05-07T10:23:32;3.90;;;2.00;;
577;SDS011;275;48.492;9.214;2023-05-07T10:26:00;5.33;;;2.20;;
577;SDS011;275;48.492;9.214;2023-05-07T10:28:33;3.93;;;1.90;;
577;SDS011;275;48.492;9.214;2023-05-07T10:31:07;4.17;;;1.90;;
577;SDS011;275;48.492;9.214;2023-05-07T10:33:45;3.13;;;1.70;;
577;SDS011;275;48.492;9.214;2023-05-07T10:36:15;3.70;;;2.00;;
577;SDS011;275;48.492;9.214;2023-05-07T10:38:43;3.63;;;2.20;;
577;SDS011;275;48.492;9.214;2023-05-07T10:41:11;3.77;;;2.03;;
577;SDS011;275;48.492;9.214;2023-05-07T10:43:40;4.03;;;2.30;;
577;SDS011;275;48.492;9.214;2023-05-07T10:46:14;4.43;;;1.97;;
577;SDS011;275;48.492;9.214;2023-05-07T10:51:36;4.30;;;2.47;;
577;SDS011;275;48.492;9.214;2023-05-07T10:54:18;3.80;;;1.70;;
577;SDS011;275;48.492;9.214;2023-05-07T10:56:47;3.17;;;1.70;;
577;SDS011;275;48.492;9.214;2023-05-07T10:59:32;4.37;;;2.53;;
577;SDS011;275;48.492;9.214;2023-05-07T11:02:05;4.43;;;2.63;;
577;SDS011;275;48.492;9.214;2023-05-07T11:04:34;5.00;;;2.33;;
577;SDS011;275;48.492;9.214;2023-05-07T11:09:58;3.53;;;2.27;;
577;SDS011;275;48.492;9.214;2023-05-07T11:15:32;3.90;;;2.50;;
577;SDS011;275;48.492;9.214;2023-05-07T11:18:04;4.00;;;2.77;;
577;SDS011;275;48.492;9.214;2023-05-07T11:20:44;4.20;;;3.20;;
577;SDS011;275;48.492;9.214;2023-05-07T11:26:24;6.33;;;4.27;;
577;SDS011;275;48.492;9.214;2023-05-07T11:28:53;9.00;;;4.60;;
577;SDS011;275;48.492;9.214;2023-05-07T11:31:23;6.03;;;3.37;;
577;SDS011;275;48.492;9.214;2023-05-07T11:33:51;6.10;;;3.70;;
577;SDS011;275;48.492;9.214;2023-05-07T11:36:19;5.03;;;3.50;;
577;SDS011;275;48.492;9.214;2023-05-07T11:38:46;5.10;;;3.70;;
577;SDS011;275;48.492;9.214;2023-05-07T11:41:13;4.90;;;3.57;;
577;SDS011;275;48.492;9.214;2023-05-07T11:43:54;5.70;;;3.60;;
577;SDS011;275;48.492;9.214;2023-05-07T11:46:23;4.53;;;3.80;;
577;SDS011;275;48.492;9.214;2023-05-07T11:48:50;5.43;;;4.03;;
577;SDS011;275;48.492;9.214;2023-05-07T11:51:20;7.87;;;3.27;;
577;SDS011;275;48.492;9.214;2023-05-07T11:53:50;5.90;;;4.03;;
577;SDS011;275;48.492;9.214;2023-05-07T11:56:18;5.83;;;3.73;;
577;SDS011;275;48.492;9.214;2023-05-07T11:58:45;5.00;;;4.00;;
577;SDS011;275;48.492;9.214;2023-05-07T12:01:13;6.70;;;4.40;;
577;SDS011;275;48.492;9.214;2023-05-07T12:03:43;5.07;;;3.80;;
577;SDS011;275;48.492;9.214;2023-05-07T12:06:11;5.93;;;4.50;;
577;SDS011;275;48.492;9.214;2023-05-07T12:08:39;4.07;;;3.30;;
577;SDS011;275;48.492;9.214;2023-05-07T12:11:07;5.73;;;3.80;;
577;SDS011;275;48.492;9.214;2023-05-07T12:13:36;4.20;;;3.10;;
577;SDS011;275;48.492;9.214;2023-05-07T12:16:03;4.20;;;3.47;;
577;SDS011;275;48.492;9.214;2023-05-07T12:18:31;6.73;;;3.70;;
577;SDS011;275;48.492;9.214;2023-05-07T12:21:01;5.60;;;3.40;;
577;SDS011;275;48.492;9.214;2023-05-07T12:23:28;5.57;;;3.00;;
577;SDS011;275;48.492;9.214;2023-05-07T12:25:55;4.00;;;2.90;;
577;SDS011;275;48.492;9.214;2023-05-07T12:28:22;4.43;;;3.00;;
577;SDS011;275;48.492;9.214;2023-05-07T12:30:50;4.10;;;3.10;;
577;SDS011;275;48.492;9.214;2023-05-07T12:33:18;4.10;;;2.90;;
577;SDS011;275;48.492;9.214;2023-05-07T12:35:46;4.77;;;3.13;;
577;SDS011;275;48.492;9.214;2023-05-07T12:38:16;5.10;;;3.03;;
577;SDS011;275;48.492;9.214;2023-05-07T12:40:45;4.50;;;3.73;;
577;SDS011;275;48.492;9.214;2023-05-07T12:43:15;4.50;;;3.57;;
577;SDS011;275;48.492;9.214;2023-05-07T12:45:43;5.63;;;3.57;;
577;SDS011;275;48.492;9.214;2023-05-07T12:48:11;4.27;;;3.07;;
577;SDS011;275;48.492;9.214;2023-05-07T12:50:38;5.50;;;4.20;;
577;SDS011;275;48.492;9.214;2023-05-07T12:53:05;5.10;;;4.40;;
577;SDS011;275;48.492;9.214;2023-05-07T12:55:41;5.27;;;3.70;;
577;SDS011;275;48.492;9.214;2023-05-07T12:58:13;4.73;;;4.03;;
577;SDS011;275;48.492;9.214;2023-05-07T13:00:42;5.57;;;3.20;;
577;SDS011;275;48.492;9.214;2023-05-07T13:03:10;5.63;;;3.40;;
577;SDS011;275;48.492;9.214;2023-05-07T13:05:37;5.90;;;5.00;;
577;SDS011;275;48.492;9.214;2023-05-07T13:08:04;7.60;;;6.90;;
577;SDS011;275;48.492;9.214;2023-05-07T13:10:31;6.83;;;4.57;;
577;SDS011;275;48.492;9.214;2023-05-07T13:13:00;5.00;;;4.50;;
577;SDS011;275;48.492;9.214;2023-05-07T13:15:27;10.43;;;7.20;;
577;SDS011;275;48.492;9.214;2023-05-07T13:17:54;6.97;;;4.00;;
577;SDS011;275;48.492;9.214;2023-05-07T13:20:21;7.40;;;3.87;;
577;SDS011;275;48.492;9.214;2023-05-07T13:22:48;4.97;;;3.70;;
577;SDS011;275;48.492;9.214;2023-05-07T13:25:15;5.73;;;4.17;;
577;SDS011;275;48.492;9.214;2023-05-07T13:27:41;4.70;;;4.17;;
577;SDS011;275;48.492;9.214;2023-05-07T13:30:10;5.10;;;4.07;;
577;SDS011;275;48.492;9.214;2023-05-07T13:32:37;6.37;;;4.40;;
577;SDS011;275;48.492;9.214;2023-05-07T13:35:04;6.67;;;5.27;;
577;SDS011;275;48.492;9.214;2023-05-07T13:37:31;6.13;;;5.53;;
577;SDS011;275;48.492;9.214;2023-05-07T13:39:58;8.93;;;6.97;;
577;SDS011;275;48.492;9.214;2023-05-07T13:42:25;12.83;;;5.80;;
577;SDS011;275;48.492;9.214;2023-05-07T13:44:52;9.20;;;6.67;;
577;SDS011;275;48.492;9.214;2023-05-07T13:47:20;12.33;;;6.07;;
577;SDS011;275;48.492;9.214;2023-05-07T13:49:47;5.80;;;5.03;;
577;SDS011;275;48.492;9.214;2023-05-07T13:52:14;8.13;;;5.33;;
577;SDS011;275;48.492;9.214;2023-05-07T13:54:41;7.73;;;5.10;;
577;SDS011;275;48.492;9.214;2023-05-07T13:57:08;7.03;;;4.87;;
577;SDS011;275;48.492;9.214;2023-05-07T13:59:35;5.70;;;4.70;;
577;SDS011;275;48.492;9.214;2023-05-07T14:02:02;7.27;;;5.30;;
577;SDS011;275;48.492;9.214;2023-05-07T14:04:30;7.00;;;6.03;;
577;SDS011;275;48.492;9.214;2023-05-07T14:06:57;8.13;;;5.73;;
577;SDS011;275;48.492;9.214;2023-05-07T14:09:24;6.40;;;5.67;;
577;SDS011;275;48.492;9.214;2023-05-07T14:11:51;8.60;;;5.30;;
577;SDS011;275;48.492;9.214;2023-05-07T14:14:17;7.63;;;5.60;;
577;SDS011;275;48.492;9.214;2023-05-07T14:16:45;6.30;;;5.70;;
577;SDS011;275;48.492;9.214;2023-05-07T14:19:12;6.10;;;5.03;;
577;SDS011;275;48.492;9.214;2023-05-07T14:21:40;6.40;;;5.40;;
577;SDS011;275;48.492;9.214;2023-05-07T14:24:07;6.03;;;4.60;;
577;SDS011;275;48.492;9.214;2023-05-07T14:26:34;6.03;;;5.20;;
577;SDS011;275;48.492;9.214;2023-05-07T14:29:01;8.23;;;6.30;;
577;SDS011;275;48.492;9.214;2023-05-07T14:31:28;6.13;;;5.60;;
577;SDS011;275;48.492;9.214;2023-05-07T14:33:55;6.17;;;5.57;;
577;SDS011;275;48.492;9.214;2023-05-07T14:36:24;6.47;;;5.43;;
577;SDS011;275;48.492;9.214;2023-05-07T14:38:53;6.77;;;6.07;;
577;SDS011;275;48.492;9.214;2023-05-07T14:41:21;6.70;;;5.60;;
577;SDS011;275;48.492;9.214;2023-05-07T14:43:48;5.70;;;5.17;;
577;SDS011;275;48.492;9.214;2023-05-07T14:46:16;5.80;;;5.30;;
577;SDS011;275;48.492;9.214;2023-05-07T14:48:43;5.53;;;4.53;;
577;SDS011;275;48.492;9.214;2023-05-07T14:51:11;6.00;;;5.40;;
577;SDS011;275;48.492;9.214;2023-05-07T14:53:38;7.50;;;5.57;;
577;SDS011;275;48.492;9.214;2023-05-07T14:56:06;5.67;;;5.10;;
577;SDS011;275;48.492;9.214;2023-05-07T14:58:33;6.10;;;5.40;;
577;SDS011;275;48.492;9.214;2023-05-07T15:01:00;5.67;;;5.00;;
577;SDS011;275;48.492;9.214;2023-05-07T15:03:27;8.73;;;5.40;;
577;SDS011;275;48.492;9.214;2023-05-07T15:05:55;5.87;;;4.90;;
577;SDS011;275;48.492;9.214;2023-05-07T15:08:21;6.40;;;4.63;;
577;SDS011;275;48.492;9.214;2023-05-07T15:10:48;5.10;;;4.60;;
577;SDS011;275;48.492;9.214;2023-05-07T15:13:16;5.40;;;4.17;;
577;SDS011;275;48.492;9.214;2023-05-07T15:15:44;4.17;;;3.17;;
577;SDS011;275;48.492;9.214;2023-05-07T15:18:11;5.00;;;3.80;;
577;SDS011;275;48.492;9.214;2023-05-07T15:20:38;6.47;;;4.43;;
577;SDS011;275;48.492;9.214;2023-05-07T15:23:05;3.93;;;3.23;;
577;SDS011;275;48.492;9.214;2023-05-07T15:25:34;5.23;;;4.17;;
577;SDS011;275;48.492;9.214;2023-05-07T15:28:02;4.20;;;2.90;;
577;SDS011;275;48.492;9.214;2023-05-07T15:30:30;4.10;;;3.40;;
577;SDS011;275;48.492;9.214;2023-05-07T15:32:57;6.53;;;4.17;;
577;SDS011;275;48.492;9.214;2023-05-07T15:35:24;5.27;;;3.73;;
577;SDS011;275;48.492;9.214;2023-05-07T15:37:51;4.97;;;4.17;;
577;SDS011;275;48.492;9.214;2023-05-07T15:40:18;6.37;;;4.30;;
577;SDS011;275;48.492;9.214;2023-05-07T15:42:45;7.27;;;3.90;;
577;SDS011;275;48.492;9.214;2023-05-07T15:45:12;5.20;;;4.13;;
577;SDS011;275;48.492;9.214;2023-05-07T15:47:40;6.30;;;4.70;;
577;SDS011;275;48.492;9.214;2023-05-07T15:50:07;6.53;;;4.93;;
577;SDS011;275;48.492;9.214;2023-05-07T15:52:35;5.77;;;5.17;;
577;SDS011;275;48.492;9.214;2023-05-07T15:55:03;6.40;;;4.73;;
577;SDS011;275;48.492;9.214;2023-05-07T15:57:31;6.43;;;4.40;;
577;SDS011;275;48.492;9.214;2023-05-07T15:59:58;7.10;;;4.50;;